Главная страница
METAR-TAF:

METAR-TAF

Аэропорты :

Кюрасао, Нидерландские Антильские острова

широта: 12-12N, долгота: 068-58W, высота над уровнем моря: 9 м

Текущие метеонаблюдения

Эта сводка был подготовлена 39 минут назад, в 20:00 UTC
Ветер 15 Узел от восточный
Температура 30°C
Влажность 66%
Давление 1012 hPa
Видимость 10 км и более

METAR: TNCC 242000Z AUTO 10015KT 9999 NCD 30/23 Q1012

Время: 16:39 (20:39 UTC)

Прогноз

Эта сводка был подготовлена 5 часа и 9 минут назад, в 15:30 UTC
Прогноз действительный с 24-го 18 UTC до 25-го 18 UTC
Ветер 16 Узел от восточный
Видимость 10 км и более
Отдельные облака на высоте 2200 фута
Вероятность 30% :
временами
С 24-го 18 UTC до 24-го 22 UTC
Видимость: 8000 м
Рассеянная облачность на высоте 1500 фута
ливневые дожди

TAF: TNCC 241530Z 2418/2518 10016KT 9999 SCT022 PROB30 TEMPO 2418/2422 8000 SHRA BKN015

Метеонаблюдения и прогнозы для более 4000 аэропортов (сводки METAR и TAF).

Имеющиеся станции представлены на карте желтыми и красными точками.

Чтобы увидеть название станции, наведите на нее мышь.

Затем щелкните, чтобы увидеть метеонаблюдения и метеопрогнозы.

Управление картой: чтобы увеличить масштаб, щелкните зеленые кнопки с черным крестиком; чтобы уменьшить масштаб, щелкните зеленую кнопку с тире; для просмотра соседних карт щелкайте зеленые стрелки.


METAR-TAF: